sensor_id;sensor_type;location;lat;lon;timestamp;pressure;altitude;pressure_sealevel;temperature;humidity
19748;BME280;10032;51.386;12.516;2022-10-16T00:00:43;99866.00;;;16.75;100.00
19748;BME280;10032;51.386;12.516;2022-10-16T00:03:09;99869.53;;;16.75;100.00
19748;BME280;10032;51.386;12.516;2022-10-16T00:05:40;99861.31;;;16.75;100.00
19748;BME280;10032;51.386;12.516;2022-10-16T00:08:07;99863.03;;;16.71;100.00
19748;BME280;10032;51.386;12.516;2022-10-16T00:10:33;99862.28;;;16.66;100.00
19748;BME280;10032;51.386;12.516;2022-10-16T00:12:58;99860.44;;;16.61;100.00
19748;BME280;10032;51.386;12.516;2022-10-16T00:15:24;99856.09;;;16.60;100.00
19748;BME280;10032;51.386;12.516;2022-10-16T00:17:49;99855.63;;;16.53;100.00
19748;BME280;10032;51.386;12.516;2022-10-16T00:20:14;99860.16;;;16.44;100.00
19748;BME280;10032;51.386;12.516;2022-10-16T00:22:40;99863.19;;;16.43;100.00
19748;BME280;10032;51.386;12.516;2022-10-16T00:25:05;99863.47;;;16.41;100.00
19748;BME280;10032;51.386;12.516;2022-10-16T00:27:31;99868.94;;;16.41;100.00
19748;BME280;10032;51.386;12.516;2022-10-16T00:29:56;99878.28;;;16.35;100.00
19748;BME280;10032;51.386;12.516;2022-10-16T00:32:22;99879.09;;;16.36;100.00
19748;BME280;10032;51.386;12.516;2022-10-16T00:34:47;99879.69;;;16.33;100.00
19748;BME280;10032;51.386;12.516;2022-10-16T00:37:13;99875.63;;;16.30;100.00
19748;BME280;10032;51.386;12.516;2022-10-16T00:39:41;99874.22;;;16.33;100.00
19748;BME280;10032;51.386;12.516;2022-10-16T00:42:13;99882.13;;;16.34;100.00
19748;BME280;10032;51.386;12.516;2022-10-16T00:44:53;99880.72;;;16.37;100.00
19748;BME280;10032;51.386;12.516;2022-10-16T00:47:22;99889.22;;;16.35;100.00
19748;BME280;10032;51.386;12.516;2022-10-16T00:49:51;99899.34;;;16.35;100.00
19748;BME280;10032;51.386;12.516;2022-10-16T00:52:18;99882.94;;;16.35;100.00
19748;BME280;10032;51.386;12.516;2022-10-16T00:54:46;99880.47;;;16.33;100.00
19748;BME280;10032;51.386;12.516;2022-10-16T00:57:12;99893.88;;;16.35;100.00
19748;BME280;10032;51.386;12.516;2022-10-16T00:59:40;99893.06;;;16.34;100.00
19748;BME280;10032;51.386;12.516;2022-10-16T01:02:08;99881.88;;;16.31;100.00
19748;BME280;10032;51.386;12.516;2022-10-16T01:04:43;99882.47;;;16.28;100.00
19748;BME280;10032;51.386;12.516;2022-10-16T01:07:21;99875.97;;;16.24;100.00
19748;BME280;10032;51.386;12.516;2022-10-16T01:15:43;99878.59;;;16.10;100.00
19748;BME280;10032;51.386;12.516;2022-10-16T01:18:28;99872.63;;;16.08;100.00
19748;BME280;10032;51.386;12.516;2022-10-16T01:26:20;99901.28;;;16.11;100.00
19748;BME280;10032;51.386;12.516;2022-10-16T01:29:02;99896.06;;;16.14;100.00
19748;BME280;10032;51.386;12.516;2022-10-16T01:31:32;99887.84;;;16.14;100.00
19748;BME280;10032;51.386;12.516;2022-10-16T01:36:52;99882.63;;;16.18;100.00
19748;BME280;10032;51.386;12.516;2022-10-16T01:39:24;99890.81;;;16.18;100.00
19748;BME280;10032;51.386;12.516;2022-10-16T01:42:24;99891.94;;;16.17;100.00
19748;BME280;10032;51.386;12.516;2022-10-16T01:44:52;99886.22;;;16.13;100.00
19748;BME280;10032;51.386;12.516;2022-10-16T01:47:22;99896.56;;;16.16;100.00
19748;BME280;10032;51.386;12.516;2022-10-16T01:49:51;99888.66;;;16.15;100.00
19748;BME280;10032;51.386;12.516;2022-10-16T01:52:21;99905.88;;;16.15;100.00
19748;BME280;10032;51.386;12.516;2022-10-16T01:54:50;99907.50;;;16.16;100.00
19748;BME280;10032;51.386;12.516;2022-10-16T01:57:17;99911.00;;;16.22;100.00
19748;BME280;10032;51.386;12.516;2022-10-16T01:59:47;99914.25;;;16.24;100.00
19748;BME280;10032;51.386;12.516;2022-10-16T02:02:15;99909.59;;;16.24;100.00
19748;BME280;10032;51.386;12.516;2022-10-16T02:04:44;99912.28;;;16.29;100.00
19748;BME280;10032;51.386;12.516;2022-10-16T02:07:11;99909.53;;;16.29;100.00
19748;BME280;10032;51.386;12.516;2022-10-16T02:09:38;99910.88;;;16.32;100.00
19748;BME280;10032;51.386;12.516;2022-10-16T02:12:09;99911.66;;;16.32;100.00
19748;BME280;10032;51.386;12.516;2022-10-16T02:14:38;99905.09;;;16.33;100.00
19748;BME280;10032;51.386;12.516;2022-10-16T02:17:11;99893.66;;;16.31;100.00
19748;BME280;10032;51.386;12.516;2022-10-16T02:19:37;99897.50;;;16.30;100.00
19748;BME280;10032;51.386;12.516;2022-10-16T02:22:04;99895.56;;;16.31;100.00
19748;BME280;10032;51.386;12.516;2022-10-16T02:24:36;99898.59;;;16.29;100.00
19748;BME280;10032;51.386;12.516;2022-10-16T02:27:11;99896.44;;;16.26;100.00
19748;BME280;10032;51.386;12.516;2022-10-16T02:29:42;99907.38;;;16.26;100.00
19748;BME280;10032;51.386;12.516;2022-10-16T02:32:12;99906.25;;;16.27;100.00
19748;BME280;10032;51.386;12.516;2022-10-16T02:34:39;99914.47;;;16.27;100.00
19748;BME280;10032;51.386;12.516;2022-10-16T02:37:05;99916.63;;;16.30;100.00
19748;BME280;10032;51.386;12.516;2022-10-16T02:39:32;99925.34;;;16.32;100.00
19748;BME280;10032;51.386;12.516;2022-10-16T02:41:57;99932.44;;;16.33;100.00
19748;BME280;10032;51.386;12.516;2022-10-16T02:44:23;99925.94;;;16.29;100.00
19748;BME280;10032;51.386;12.516;2022-10-16T02:46:48;99923.22;;;16.29;100.00
19748;BME280;10032;51.386;12.516;2022-10-16T02:49:13;99928.69;;;16.29;100.00
19748;BME280;10032;51.386;12.516;2022-10-16T02:51:39;99931.19;;;16.26;100.00
19748;BME280;10032;51.386;12.516;2022-10-16T02:54:04;99927.41;;;16.22;100.00
19748;BME280;10032;51.386;12.516;2022-10-16T02:56:30;99923.28;;;16.24;100.00
19748;BME280;10032;51.386;12.516;2022-10-16T02:58:56;99921.59;;;16.28;100.00
19748;BME280;10032;51.386;12.516;2022-10-16T03:01:22;99920.75;;;16.28;100.00
19748;BME280;10032;51.386;12.516;2022-10-16T03:03:47;99923.00;;;16.26;100.00
19748;BME280;10032;51.386;12.516;2022-10-16T03:06:13;99914.84;;;16.21;100.00
19748;BME280;10032;51.386;12.516;2022-10-16T03:08:38;99924.66;;;16.22;100.00
19748;BME280;10032;51.386;12.516;2022-10-16T03:11:04;99928.78;;;16.19;100.00
19748;BME280;10032;51.386;12.516;2022-10-16T03:13:29;99928.78;;;16.19;100.00
19748;BME280;10032;51.386;12.516;2022-10-16T03:15:55;99935.06;;;16.20;100.00
19748;BME280;10032;51.386;12.516;2022-10-16T03:18:20;99938.91;;;16.19;100.00
19748;BME280;10032;51.386;12.516;2022-10-16T03:20:46;99937.78;;;16.20;100.00
19748;BME280;10032;51.386;12.516;2022-10-16T03:23:11;99944.09;;;16.20;100.00
19748;BME280;10032;51.386;12.516;2022-10-16T03:25:36;99937.50;;;16.21;100.00
19748;BME280;10032;51.386;12.516;2022-10-16T03:28:02;99934.28;;;16.19;100.00
19748;BME280;10032;51.386;12.516;2022-10-16T03:30:28;99937.06;;;16.14;100.00
19748;BME280;10032;51.386;12.516;2022-10-16T03:32:53;99943.91;;;16.12;100.00
19748;BME280;10032;51.386;12.516;2022-10-16T03:35:23;99951.84;;;16.13;100.00
19748;BME280;10032;51.386;12.516;2022-10-16T03:37:49;99969.31;;;16.12;100.00
19748;BME280;10032;51.386;12.516;2022-10-16T03:40:16;99966.91;;;16.11;100.00
19748;BME280;10032;51.386;12.516;2022-10-16T03:42:44;99965.50;;;16.13;100.00
19748;BME280;10032;51.386;12.516;2022-10-16T03:45:10;99964.16;;;16.11;100.00
19748;BME280;10032;51.386;12.516;2022-10-16T03:47:36;99959.53;;;16.06;100.00
19748;BME280;10032;51.386;12.516;2022-10-16T03:50:02;99959.25;;;16.08;100.00
19748;BME280;10032;51.386;12.516;2022-10-16T03:52:28;99951.34;;;16.06;100.00
19748;BME280;10032;51.386;12.516;2022-10-16T03:54:53;99953.00;;;16.07;100.00
19748;BME280;10032;51.386;12.516;2022-10-16T03:57:18;99954.91;;;16.07;100.00
19748;BME280;10032;51.386;12.516;2022-10-16T03:59:45;99933.88;;;16.07;100.00
19748;BME280;10032;51.386;12.516;2022-10-16T04:02:11;99941.25;;;16.07;100.00
19748;BME280;10032;51.386;12.516;2022-10-16T04:04:36;99938.78;;;16.05;100.00
19748;BME280;10032;51.386;12.516;2022-10-16T04:07:02;99942.63;;;16.04;100.00
19748;BME280;10032;51.386;12.516;2022-10-16T04:09:27;99940.41;;;16.06;100.00
19748;BME280;10032;51.386;12.516;2022-10-16T04:11:52;99951.94;;;16.03;100.00
19748;BME280;10032;51.386;12.516;2022-10-16T04:14:18;99950.06;;;15.99;100.00
19748;BME280;10032;51.386;12.516;2022-10-16T04:16:43;99944.97;;;15.92;100.00
19748;BME280;10032;51.386;12.516;2022-10-16T04:19:10;99944.91;;;15.97;100.00
19748;BME280;10032;51.386;12.516;2022-10-16T04:21:36;99949.22;;;16.03;100.00
19748;BME280;10032;51.386;12.516;2022-10-16T04:24:01;99950.31;;;16.02;100.00
19748;BME280;10032;51.386;12.516;2022-10-16T04:26:27;99941.56;;;16.00;100.00
19748;BME280;10032;51.386;12.516;2022-10-16T04:28:52;99940.19;;;16.03;100.00
19748;BME280;10032;51.386;12.516;2022-10-16T04:31:18;99956.06;;;16.01;100.00
19748;BME280;10032;51.386;12.516;2022-10-16T04:33:43;99970.31;;;15.98;100.00
19748;BME280;10032;51.386;12.516;2022-10-16T04:36:09;99957.50;;;15.93;100.00
19748;BME280;10032;51.386;12.516;2022-10-16T04:38:34;99963.53;;;15.90;100.00
19748;BME280;10032;51.386;12.516;2022-10-16T04:41:00;99981.31;;;15.88;100.00
19748;BME280;10032;51.386;12.516;2022-10-16T04:43:25;99980.53;;;15.87;100.00
19748;BME280;10032;51.386;12.516;2022-10-16T04:45:51;99975.63;;;15.84;100.00
19748;BME280;10032;51.386;12.516;2022-10-16T04:48:17;99979.53;;;15.78;100.00
19748;BME280;10032;51.386;12.516;2022-10-16T04:50:43;99989.94;;;15.76;100.00
19748;BME280;10032;51.386;12.516;2022-10-16T04:53:08;100001.88;;;15.80;100.00
19748;BME280;10032;51.386;12.516;2022-10-16T04:55:34;99987.66;;;15.83;100.00
19748;BME280;10032;51.386;12.516;2022-10-16T04:57:59;99994.25;;;15.82;100.00
19748;BME280;10032;51.386;12.516;2022-10-16T05:00:25;99983.03;;;15.84;100.00
19748;BME280;10032;51.386;12.516;2022-10-16T05:02:50;99983.81;;;15.84;100.00
19748;BME280;10032;51.386;12.516;2022-10-16T05:05:16;99993.41;;;15.82;100.00
19748;BME280;10032;51.386;12.516;2022-10-16T05:07:41;99998.59;;;15.83;100.00
19748;BME280;10032;51.386;12.516;2022-10-16T05:10:07;100006.28;;;15.81;100.00
19748;BME280;10032;51.386;12.516;2022-10-16T05:12:33;100015.28;;;15.82;100.00
19748;BME280;10032;51.386;12.516;2022-10-16T05:14:58;100017.22;;;15.81;100.00
19748;BME280;10032;51.386;12.516;2022-10-16T05:17:25;100017.72;;;15.83;100.00
19748;BME280;10032;51.386;12.516;2022-10-16T05:19:50;100015.00;;;15.83;100.00
19748;BME280;10032;51.386;12.516;2022-10-16T05:22:16;100004.63;;;15.80;100.00
19748;BME280;10032;51.386;12.516;2022-10-16T05:24:41;100018.28;;;15.80;100.00
19748;BME280;10032;51.386;12.516;2022-10-16T05:27:07;100014.47;;;15.81;100.00
19748;BME280;10032;51.386;12.516;2022-10-16T05:29:32;100012.81;;;15.80;100.00
19748;BME280;10032;51.386;12.516;2022-10-16T05:31:57;100007.34;;;15.80;100.00
19748;BME280;10032;51.386;12.516;2022-10-16T05:34:23;100011.44;;;15.83;100.00
19748;BME280;10032;51.386;12.516;2022-10-16T05:36:48;100020.19;;;15.85;100.00
19748;BME280;10032;51.386;12.516;2022-10-16T05:39:15;100026.44;;;15.85;100.00
19748;BME280;10032;51.386;12.516;2022-10-16T05:41:40;100029.47;;;15.84;100.00
19748;BME280;10032;51.386;12.516;2022-10-16T05:44:06;100022.34;;;15.83;100.00
19748;BME280;10032;51.386;12.516;2022-10-16T05:46:32;100023.47;;;15.82;100.00
19748;BME280;10032;51.386;12.516;2022-10-16T05:48:57;100023.19;;;15.83;100.00
19748;BME280;10032;51.386;12.516;2022-10-16T05:51:23;100037.38;;;15.85;100.00
19748;BME280;10032;51.386;12.516;2022-10-16T05:53:48;100033.78;;;15.90;100.00
19748;BME280;10032;51.386;12.516;2022-10-16T05:56:14;100032.97;;;15.89;100.00
19748;BME280;10032;51.386;12.516;2022-10-16T05:58:40;100032.41;;;15.92;100.00
19748;BME280;10032;51.386;12.516;2022-10-16T06:01:11;100046.31;;;15.96;100.00
19748;BME280;10032;51.386;12.516;2022-10-16T06:03:37;100043.28;;;15.97;100.00
19748;BME280;10032;51.386;12.516;2022-10-16T06:06:17;100048.44;;;15.99;100.00
19748;BME280;10032;51.386;12.516;2022-10-16T06:08:45;100056.66;;;15.99;100.00
19748;BME280;10032;51.386;12.516;2022-10-16T06:11:13;100044.88;;;16.03;100.00
19748;BME280;10032;51.386;12.516;2022-10-16T06:13:39;100056.88;;;16.07;100.00
19748;BME280;10032;51.386;12.516;2022-10-16T06:16:07;100064.19;;;16.12;100.00
19748;BME280;10032;51.386;12.516;2022-10-16T06:18:35;100062.81;;;16.14;100.00
19748;BME280;10032;51.386;12.516;2022-10-16T06:21:07;100063.88;;;16.18;100.00
19748;BME280;10032;51.386;12.516;2022-10-16T06:23:33;100065.97;;;16.26;100.00
19748;BME280;10032;51.386;12.516;2022-10-16T06:26:08;100057.72;;;16.31;100.00
19748;BME280;10032;51.386;12.516;2022-10-16T06:28:34;100060.16;;;16.33;100.00
19748;BME280;10032;51.386;12.516;2022-10-16T06:31:00;100060.38;;;16.36;100.00
19748;BME280;10032;51.386;12.516;2022-10-16T06:33:26;100070.78;;;16.39;100.00
19748;BME280;10032;51.386;12.516;2022-10-16T06:35:51;100064.50;;;16.39;100.00
19748;BME280;10032;51.386;12.516;2022-10-16T06:38:17;100067.47;;;16.42;100.00
19748;BME280;10032;51.386;12.516;2022-10-16T06:40:42;100070.44;;;16.46;100.00
19748;BME280;10032;51.386;12.516;2022-10-16T06:43:07;100069.56;;;16.50;100.00
19748;BME280;10032;51.386;12.516;2022-10-16T06:45:33;100078.81;;;16.54;100.00
19748;BME280;10032;51.386;12.516;2022-10-16T06:47:58;100093.25;;;16.60;100.00
19748;BME280;10032;51.386;12.516;2022-10-16T06:50:23;100092.69;;;16.63;100.00
19748;BME280;10032;51.386;12.516;2022-10-16T06:52:49;100091.00;;;16.67;100.00
19748;BME280;10032;51.386;12.516;2022-10-16T06:55:14;100100.03;;;16.67;100.00
19748;BME280;10032;51.386;12.516;2022-10-16T06:57:40;100096.19;;;16.68;100.00
19748;BME280;10032;51.386;12.516;2022-10-16T07:00:06;100097.22;;;16.72;100.00
19748;BME280;10032;51.386;12.516;2022-10-16T07:02:31;100098.81;;;16.78;100.00
19748;BME280;10032;51.386;12.516;2022-10-16T07:04:57;100102.06;;;16.80;100.00
19748;BME280;10032;51.386;12.516;2022-10-16T07:07:22;100111.03;;;16.86;100.00
19748;BME280;10032;51.386;12.516;2022-10-16T07:09:49;100110.16;;;16.90;100.00
19748;BME280;10032;51.386;12.516;2022-10-16T07:12:15;100102.47;;;16.92;100.00
19748;BME280;10032;51.386;12.516;2022-10-16T07:14:40;100099.97;;;16.96;100.00
19748;BME280;10032;51.386;12.516;2022-10-16T07:17:05;100096.88;;;17.02;100.00
19748;BME280;10032;51.386;12.516;2022-10-16T07:19:31;100107.75;;;17.07;100.00
19748;BME280;10032;51.386;12.516;2022-10-16T07:21:56;100093.47;;;17.10;100.00
19748;BME280;10032;51.386;12.516;2022-10-16T07:24:23;100068.25;;;17.13;100.00
19748;BME280;10032;51.386;12.516;2022-10-16T07:26:48;100047.91;;;17.19;100.00
19748;BME280;10032;51.386;12.516;2022-10-16T07:29:19;100059.31;;;17.26;100.00
19748;BME280;10032;51.386;12.516;2022-10-16T07:31:45;100077.22;;;17.37;100.00
19748;BME280;10032;51.386;12.516;2022-10-16T07:34:12;100092.50;;;17.43;100.00
19748;BME280;10032;51.386;12.516;2022-10-16T07:36:39;100102.28;;;17.49;100.00
19748;BME280;10032;51.386;12.516;2022-10-16T07:39:04;100117.78;;;17.59;100.00
19748;BME280;10032;51.386;12.516;2022-10-16T07:41:30;100127.25;;;17.66;100.00
19748;BME280;10032;51.386;12.516;2022-10-16T07:43:58;100123.69;;;17.66;100.00
19748;BME280;10032;51.386;12.516;2022-10-16T07:46:25;100119.03;;;17.66;100.00
19748;BME280;10032;51.386;12.516;2022-10-16T07:48:51;100127.19;;;17.71;100.00
19748;BME280;10032;51.386;12.516;2022-10-16T07:51:18;100123.25;;;17.77;100.00
19748;BME280;10032;51.386;12.516;2022-10-16T07:53:45;100129.66;;;17.86;100.00
19748;BME280;10032;51.386;12.516;2022-10-16T07:56:12;100135.00;;;17.96;100.00
19748;BME280;10032;51.386;12.516;2022-10-16T07:58:38;100141.94;;;18.07;100.00
19748;BME280;10032;51.386;12.516;2022-10-16T08:01:08;100144.03;;;18.15;100.00
19748;BME280;10032;51.386;12.516;2022-10-16T08:03:34;100140.00;;;18.26;100.00
19748;BME280;10032;51.386;12.516;2022-10-16T08:06:00;100151.13;;;18.35;100.00
19748;BME280;10032;51.386;12.516;2022-10-16T08:08:27;100149.03;;;18.45;100.00
19748;BME280;10032;51.386;12.516;2022-10-16T08:10:53;100155.75;;;18.53;100.00
19748;BME280;10032;51.386;12.516;2022-10-16T08:13:19;100159.03;;;18.68;100.00
19748;BME280;10032;51.386;12.516;2022-10-16T08:15:44;100152.16;;;18.98;100.00
19748;BME280;10032;51.386;12.516;2022-10-16T08:18:11;100146.50;;;19.21;100.00
19748;BME280;10032;51.386;12.516;2022-10-16T08:20:38;100155.94;;;19.42;100.00
19748;BME280;10032;51.386;12.516;2022-10-16T08:23:03;100162.25;;;19.56;100.00
19748;BME280;10032;51.386;12.516;2022-10-16T08:25:29;100164.25;;;19.64;100.00
19748;BME280;10032;51.386;12.516;2022-10-16T08:27:55;100181.41;;;19.83;100.00
19748;BME280;10032;51.386;12.516;2022-10-16T08:30:21;100187.50;;;19.94;100.00
19748;BME280;10032;51.386;12.516;2022-10-16T08:32:47;100191.06;;;19.94;100.00
19748;BME280;10032;51.386;12.516;2022-10-16T08:35:13;100187.19;;;19.95;100.00
19748;BME280;10032;51.386;12.516;2022-10-16T08:37:39;100176.00;;;19.92;100.00
19748;BME280;10032;51.386;12.516;2022-10-16T08:40:07;100174.69;;;19.89;100.00
19748;BME280;10032;51.386;12.516;2022-10-16T08:42:42;100183.41;;;19.91;100.00
19748;BME280;10032;51.386;12.516;2022-10-16T08:50:42;100203.69;;;20.09;100.00
19748;BME280;10032;51.386;12.516;2022-10-16T08:53:17;100196.03;;;20.06;100.00
19748;BME280;10032;51.386;12.516;2022-10-16T08:55:46;100197.88;;;20.10;100.00
19748;BME280;10032;51.386;12.516;2022-10-16T08:58:20;100210.81;;;20.10;100.00
19748;BME280;10032;51.386;12.516;2022-10-16T09:00:52;100218.84;;;20.06;100.00
19748;BME280;10032;51.386;12.516;2022-10-16T09:14:55;100233.94;;;20.66;100.00
19748;BME280;10032;51.386;12.516;2022-10-16T09:17:45;100233.31;;;20.91;100.00
19748;BME280;10032;51.386;12.516;2022-10-16T09:23:12;100236.53;;;21.15;100.00
19748;BME280;10032;51.386;12.516;2022-10-16T09:25:44;100223.06;;;21.14;100.00
19748;BME280;10032;51.386;12.516;2022-10-16T09:28:10;100218.25;;;21.28;100.00
19748;BME280;10032;51.386;12.516;2022-10-16T09:30:37;100234.16;;;21.31;100.00
19748;BME280;10032;51.386;12.516;2022-10-16T09:33:05;100234.25;;;21.17;100.00
19748;BME280;10032;51.386;12.516;2022-10-16T09:35:35;100230.63;;;21.08;100.00
19748;BME280;10032;51.386;12.516;2022-10-16T09:38:01;100243.31;;;21.09;100.00
19748;BME280;10032;51.386;12.516;2022-10-16T09:40:36;100247.41;;;21.20;100.00
19748;BME280;10032;51.386;12.516;2022-10-16T09:43:03;100253.44;;;21.31;100.00
19748;BME280;10032;51.386;12.516;2022-10-16T09:45:31;100251.44;;;21.53;100.00
19748;BME280;10032;51.386;12.516;2022-10-16T09:47:56;100258.50;;;21.76;100.00
19748;BME280;10032;51.386;12.516;2022-10-16T09:50:27;100249.63;;;21.96;100.00
19748;BME280;10032;51.386;12.516;2022-10-16T09:53:08;100258.94;;;22.26;100.00
19748;BME280;10032;51.386;12.516;2022-10-16T09:55:35;100264.44;;;22.26;100.00
19748;BME280;10032;51.386;12.516;2022-10-16T09:58:01;100267.06;;;22.22;100.00
19748;BME280;10032;51.386;12.516;2022-10-16T10:00:26;100252.25;;;22.10;100.00
19748;BME280;10032;51.386;12.516;2022-10-16T10:02:53;100253.88;;;22.02;100.00
19748;BME280;10032;51.386;12.516;2022-10-16T10:05:27;100263.59;;;22.08;100.00
19748;BME280;10032;51.386;12.516;2022-10-16T10:08:01;100270.28;;;22.24;100.00
19748;BME280;10032;51.386;12.516;2022-10-16T10:10:33;100268.97;;;22.22;100.00
19748;BME280;10032;51.386;12.516;2022-10-16T10:13:01;100260.88;;;22.17;100.00
19748;BME280;10032;51.386;12.516;2022-10-16T10:15:32;100270.44;;;22.19;100.00
19748;BME280;10032;51.386;12.516;2022-10-16T10:17:58;100273.53;;;22.09;100.00
19748;BME280;10032;51.386;12.516;2022-10-16T10:20:35;100272.25;;;22.07;100.00
19748;BME280;10032;51.386;12.516;2022-10-16T10:23:21;100285.84;;;22.03;100.00
19748;BME280;10032;51.386;12.516;2022-10-16T10:25:58;100282.47;;;22.15;100.00
19748;BME280;10032;51.386;12.516;2022-10-16T10:37:23;100297.31;;;22.44;100.00
19748;BME280;10032;51.386;12.516;2022-10-16T10:45:36;100287.72;;;22.76;100.00
19748;BME280;10032;51.386;12.516;2022-10-16T10:48:12;100288.06;;;22.74;100.00
19748;BME280;10032;51.386;12.516;2022-10-16T10:56:04;100299.13;;;22.57;100.00
19748;BME280;10032;51.386;12.516;2022-10-16T11:01:17;100298.75;;;22.50;100.00
19748;BME280;10032;51.386;12.516;2022-10-16T11:06:52;100298.28;;;22.48;100.00
19748;BME280;10032;51.386;12.516;2022-10-16T11:09:33;100300.06;;;22.44;100.00
19748;BME280;10032;51.386;12.516;2022-10-16T11:12:24;100292.56;;;22.36;100.00
19748;BME280;10032;51.386;12.516;2022-10-16T11:17:25;100299.25;;;22.35;100.00
19748;BME280;10032;51.386;12.516;2022-10-16T11:20:18;100302.03;;;22.44;100.00
19748;BME280;10032;51.386;12.516;2022-10-16T11:22:48;100298.94;;;22.45;100.00
19748;BME280;10032;51.386;12.516;2022-10-16T11:25:22;100306.69;;;22.43;100.00
19748;BME280;10032;51.386;12.516;2022-10-16T11:27:57;100303.19;;;22.51;100.00
19748;BME280;10032;51.386;12.516;2022-10-16T11:30:28;100304.63;;;22.49;100.00
19748;BME280;10032;51.386;12.516;2022-10-16T11:36:17;100304.28;;;22.50;100.00
19748;BME280;10032;51.386;12.516;2022-10-16T11:41:39;100313.88;;;22.53;100.00
19748;BME280;10032;51.386;12.516;2022-10-16T11:44:25;100310.81;;;22.54;100.00
19748;BME280;10032;51.386;12.516;2022-10-16T11:47:05;100305.78;;;22.56;100.00
19748;BME280;10032;51.386;12.516;2022-10-16T11:49:36;100311.78;;;22.58;100.00
19748;BME280;10032;51.386;12.516;2022-10-16T11:54:45;100310.47;;;22.56;100.00
19748;BME280;10032;51.386;12.516;2022-10-16T11:57:20;100313.41;;;22.59;100.00
19748;BME280;10032;51.386;12.516;2022-10-16T11:59:50;100314.88;;;22.65;100.00
19748;BME280;10032;51.386;12.516;2022-10-16T12:02:31;100315.84;;;22.61;100.00
19748;BME280;10032;51.386;12.516;2022-10-16T12:05:11;100321.69;;;22.59;100.00
19748;BME280;10032;51.386;12.516;2022-10-16T12:07:44;100323.00;;;22.53;100.00
19748;BME280;10032;51.386;12.516;2022-10-16T12:10:24;100321.22;;;22.57;100.00
19748;BME280;10032;51.386;12.516;2022-10-16T12:12:51;100320.72;;;22.55;100.00
19748;BME280;10032;51.386;12.516;2022-10-16T12:15:23;100321.69;;;22.59;100.00
19748;BME280;10032;51.386;12.516;2022-10-16T12:17:50;100332.09;;;22.62;100.00
19748;BME280;10032;51.386;12.516;2022-10-16T12:20:28;100328.69;;;22.57;100.00
19748;BME280;10032;51.386;12.516;2022-10-16T12:23:01;100324.28;;;22.64;100.00
19748;BME280;10032;51.386;12.516;2022-10-16T12:25:30;100333.88;;;22.75;100.00
19748;BME280;10032;51.386;12.516;2022-10-16T12:27:57;100319.75;;;22.60;100.00
19748;BME280;10032;51.386;12.516;2022-10-16T12:30:25;100316.31;;;22.54;100.00
19748;BME280;10032;51.386;12.516;2022-10-16T12:32:56;100327.22;;;22.59;100.00
19748;BME280;10032;51.386;12.516;2022-10-16T12:35:26;100332.41;;;22.61;100.00
19748;BME280;10032;51.386;12.516;2022-10-16T12:37:53;100331.13;;;22.58;100.00
19748;BME280;10032;51.386;12.516;2022-10-16T12:40:31;100326.38;;;22.59;100.00
19748;BME280;10032;51.386;12.516;2022-10-16T12:42:57;100332.91;;;22.63;100.00
19748;BME280;10032;51.386;12.516;2022-10-16T12:45:33;100333.72;;;22.63;100.00
19748;BME280;10032;51.386;12.516;2022-10-16T12:48:01;100334.34;;;22.60;100.00
19748;BME280;10032;51.386;12.516;2022-10-16T12:50:37;100336.97;;;22.65;100.00
19748;BME280;10032;51.386;12.516;2022-10-16T12:53:17;100336.66;;;22.75;100.00
19748;BME280;10032;51.386;12.516;2022-10-16T12:58:40;100343.78;;;23.10;100.00
19748;BME280;10032;51.386;12.516;2022-10-16T13:04:13;100343.13;;;22.96;100.00
19748;BME280;10032;51.386;12.516;2022-10-16T13:14:54;100361.34;;;22.55;100.00
19748;BME280;10032;51.386;12.516;2022-10-16T13:17:40;100357.28;;;22.69;100.00
19748;BME280;10032;51.386;12.516;2022-10-16T13:23:07;100350.94;;;22.60;100.00
19748;BME280;10032;51.386;12.516;2022-10-16T13:28:09;100347.84;;;22.70;100.00
19748;BME280;10032;51.386;12.516;2022-10-16T13:30:41;100351.91;;;22.73;100.00
19748;BME280;10032;51.386;12.516;2022-10-16T13:33:15;100361.03;;;22.73;100.00
19748;BME280;10032;51.386;12.516;2022-10-16T13:35:54;100350.47;;;22.67;100.00
19748;BME280;10032;51.386;12.516;2022-10-16T13:38:30;100365.72;;;22.64;100.00
19748;BME280;10032;51.386;12.516;2022-10-16T13:41:15;100360.69;;;22.66;100.00
19748;BME280;10032;51.386;12.516;2022-10-16T13:43:44;100361.03;;;22.56;100.00
19748;BME280;10032;51.386;12.516;2022-10-16T13:46:19;100365.84;;;22.42;100.00
19748;BME280;10032;51.386;12.516;2022-10-16T13:48:59;100361.34;;;22.46;100.00
19748;BME280;10032;51.386;12.516;2022-10-16T13:51:26;100372.56;;;22.50;100.00
19748;BME280;10032;51.386;12.516;2022-10-16T13:53:52;100374.91;;;22.43;100.00
19748;BME280;10032;51.386;12.516;2022-10-16T13:56:22;100375.28;;;22.41;100.00
19748;BME280;10032;51.386;12.516;2022-10-16T13:59:02;100380.78;;;22.41;100.00
19748;BME280;10032;51.386;12.516;2022-10-16T14:01:33;100388.97;;;22.46;100.00
19748;BME280;10032;51.386;12.516;2022-10-16T14:04:08;100392.31;;;22.43;100.00
19748;BME280;10032;51.386;12.516;2022-10-16T14:06:36;100390.03;;;22.37;100.00
19748;BME280;10032;51.386;12.516;2022-10-16T14:09:08;100399.59;;;22.31;100.00
19748;BME280;10032;51.386;12.516;2022-10-16T14:11:44;100396.34;;;22.29;100.00